createdAt,value
2022-12-15T00:05:07.810Z,99157.41
2022-12-15T00:15:29.681Z,99155.77
2022-12-15T00:25:51.666Z,99153.84
2022-12-15T00:36:13.399Z,99147.41
2022-12-15T00:46:35.313Z,99150.28
2022-12-15T00:56:57.230Z,99145.79
2022-12-15T01:07:19.008Z,99134.31
2022-12-15T01:17:40.969Z,99125.59
2022-12-15T01:27:45.485Z,99136.21
2022-12-15T01:37:49.879Z,99135.09
2022-12-15T01:48:06.093Z,99135.06
2022-12-15T01:58:12.808Z,99133.98
2022-12-15T02:08:16.342Z,99124.05
2022-12-15T02:18:40.524Z,99121.77
2022-12-15T02:29:13.443Z,99137.41
2022-12-15T02:39:18.761Z,99136.20
2022-12-15T02:49:39.186Z,99147.64
2022-12-15T03:00:00.750Z,99157.63
2022-12-15T03:10:06.277Z,99151.58
2022-12-15T03:20:10.293Z,99150.98
2022-12-15T03:30:13.801Z,99153.55
2022-12-15T03:40:16.984Z,99158.05
2022-12-15T03:50:25.994Z,99173.51
2022-12-15T04:00:29.304Z,99182.91
2022-12-15T04:10:35.618Z,99184.22
2022-12-15T04:20:40.743Z,99198.52
2022-12-15T04:31:10.556Z,99205.80
2022-12-15T04:41:34.651Z,99209.46
2022-12-15T04:51:56.446Z,99223.90
2022-12-15T05:02:18.571Z,99238.16
2022-12-15T05:12:40.958Z,99248.53
2022-12-15T05:23:02.869Z,99258.14
2022-12-15T05:33:06.250Z,99284.26
2022-12-15T05:43:09.354Z,99290.56
2022-12-15T05:53:12.527Z,99312.04
2022-12-15T06:03:15.783Z,99335.32
2022-12-15T06:13:18.925Z,99348.41
2022-12-15T06:23:22.051Z,99376.40
2022-12-15T06:33:25.229Z,99391.40
2022-12-15T06:43:30.502Z,99401.14
2022-12-15T06:53:38.193Z,99430.70
2022-12-15T07:03:42.131Z,99449.52
2022-12-15T07:13:50.269Z,99462.80
2022-12-15T07:23:55.969Z,99475.71
2022-12-15T07:34:00.253Z,99497.38
2022-12-15T07:44:03.874Z,99515.88
2022-12-15T07:54:07.852Z,99538.36
2022-12-15T08:04:11.134Z,99548.57
2022-12-15T08:14:18.092Z,99561.83
2022-12-15T08:24:22.033Z,99578.17
2022-12-15T08:34:25.216Z,99591.23
2022-12-15T08:44:28.356Z,99613.66
2022-12-15T08:54:32.671Z,99621.34
2022-12-15T09:04:36.260Z,99629.48
2022-12-15T09:14:39.396Z,99645.27
2022-12-15T09:24:42.618Z,99649.73
2022-12-15T09:34:45.839Z,99665.14
2022-12-15T09:44:52.602Z,99676.70
2022-12-15T09:54:58.363Z,99675.11
2022-12-15T10:05:04.299Z,99691.41
2022-12-15T10:15:07.713Z,99696.97
2022-12-15T10:25:37.124Z,99703.67
2022-12-15T10:35:41.456Z,99722.33
2022-12-15T10:45:44.684Z,99732.60
2022-12-15T10:55:50.244Z,99745.33
2022-12-15T11:05:56.945Z,99755.36
2022-12-15T11:16:20.172Z,99762.59
2022-12-15T11:26:41.956Z,99773.77
2022-12-15T11:36:48.517Z,99792.15
2022-12-15T11:47:27.842Z,99804.59
2022-12-15T11:57:33.699Z,99812.86
2022-12-15T12:07:44.058Z,99824.30
2022-12-15T12:17:55.799Z,99839.02
2022-12-15T12:28:03.866Z,99852.27
2022-12-15T12:38:11.380Z,99856.70
2022-12-15T12:48:26.081Z,99865.77
2022-12-15T12:58:41.863Z,99880.56
2022-12-15T13:08:53.322Z,99895.77
2022-12-15T13:19:02.042Z,99910.25
2022-12-15T13:29:10.520Z,99909.67
2022-12-15T13:39:16.750Z,99931.48
2022-12-15T13:49:33.342Z,99952.45
2022-12-15T13:59:52.484Z,99972.96
2022-12-15T14:09:55.811Z,99980.70
2022-12-15T14:20:11.488Z,99977.49
2022-12-15T14:30:23.632Z,99977.15
2022-12-15T14:40:29.131Z,99978.50
2022-12-15T14:50:33.228Z,99985.10
2022-12-15T15:00:48.912Z,99993.59
2022-12-15T15:10:53.765Z,100006.40
2022-12-15T15:21:00.288Z,100014.82
2022-12-15T15:31:24.990Z,100021.31
2022-12-15T15:41:30.370Z,100034.05
2022-12-15T15:51:35.116Z,100041.46
2022-12-15T16:01:38.323Z,100055.60
2022-12-15T16:11:41.582Z,100061.29
2022-12-15T16:21:44.753Z,100094.23
2022-12-15T16:31:48.090Z,100109.30
2022-12-15T16:41:54.114Z,100127.36
2022-12-15T16:51:57.285Z,100139.83
2022-12-15T17:02:01.060Z,100143.30
2022-12-15T17:12:04.818Z,100153.79
2022-12-15T17:22:15.083Z,100161.92
2022-12-15T17:32:18.533Z,100156.48
2022-12-15T17:42:21.732Z,100153.77
2022-12-15T17:52:28.081Z,100149.70
2022-12-15T18:02:33.132Z,100148.92
2022-12-15T18:12:36.769Z,100146.81
2022-12-15T18:22:40.133Z,100153.23
2022-12-15T18:32:44.643Z,100161.34
2022-12-15T18:42:48.549Z,100176.00
2022-12-15T18:53:00.342Z,100182.06
2022-12-15T19:03:03.741Z,100180.86
2022-12-15T19:13:12.659Z,100200.77
2022-12-15T19:23:17.138Z,100210.29
2022-12-15T19:33:20.818Z,100204.79
2022-12-15T19:43:25.659Z,100208.71
2022-12-15T19:53:31.183Z,100206.37
2022-12-15T20:03:35.834Z,100191.98
2022-12-15T20:13:39.470Z,100189.15
2022-12-15T20:24:02.515Z,100192.01
2022-12-15T20:34:05.709Z,100201.88
2022-12-15T20:44:12.931Z,100205.08
2022-12-15T20:54:21.952Z,100206.16
2022-12-15T21:04:30.446Z,100208.88
2022-12-15T21:14:33.637Z,100215.58
2022-12-15T21:24:36.818Z,100219.14
2022-12-15T21:34:40.393Z,100220.92
2022-12-15T21:44:43.973Z,100222.80
2022-12-15T21:54:47.137Z,100228.92
2022-12-15T22:04:51.894Z,100221.59
2022-12-15T22:14:55.101Z,100212.39
2022-12-15T22:24:58.243Z,100223.02
2022-12-15T22:35:01.376Z,100234.20
2022-12-15T22:45:06.927Z,100246.17
2022-12-15T22:55:13.818Z,100260.81
2022-12-15T23:05:19.836Z,100251.30
2022-12-15T23:15:44.355Z,100240.37
2022-12-15T23:25:47.680Z,100243.20
2022-12-15T23:35:54.869Z,100240.91
2022-12-15T23:46:06.826Z,100248.38
2022-12-15T23:56:16.046Z,100245.02
